sensor_id;sensor_type;location;lat;lon;timestamp;P1;durP1;ratioP1;P2;durP2;ratioP2
18174;SDS011;9212;50.894;16.714;2022-07-03T00:01:39;1.93;;;1.47;;
18174;SDS011;9212;50.894;16.714;2022-07-03T00:04:06;1.80;;;1.70;;
18174;SDS011;9212;50.894;16.714;2022-07-03T00:06:34;1.70;;;1.60;;
18174;SDS011;9212;50.894;16.714;2022-07-03T00:09:02;4.30;;;1.67;;
18174;SDS011;9212;50.894;16.714;2022-07-03T00:11:31;3.17;;;1.37;;
18174;SDS011;9212;50.894;16.714;2022-07-03T00:13:59;1.80;;;1.70;;
18174;SDS011;9212;50.894;16.714;2022-07-03T00:16:26;1.57;;;1.50;;
18174;SDS011;9212;50.894;16.714;2022-07-03T00:18:53;1.67;;;1.43;;
18174;SDS011;9212;50.894;16.714;2022-07-03T00:21:23;1.30;;;1.30;;
18174;SDS011;9212;50.894;16.714;2022-07-03T00:24:00;1.93;;;1.60;;
18174;SDS011;9212;50.894;16.714;2022-07-03T00:26:40;1.67;;;1.57;;
18174;SDS011;9212;50.894;16.714;2022-07-03T00:29:10;1.77;;;1.67;;
18174;SDS011;9212;50.894;16.714;2022-07-03T00:31:41;3.50;;;1.73;;
18174;SDS011;9212;50.894;16.714;2022-07-03T00:34:08;2.03;;;1.70;;
18174;SDS011;9212;50.894;16.714;2022-07-03T00:36:38;8.03;;;1.67;;
18174;SDS011;9212;50.894;16.714;2022-07-03T00:39:07;1.20;;;1.20;;
18174;SDS011;9212;50.894;16.714;2022-07-03T00:41:35;8.50;;;1.57;;
18174;SDS011;9212;50.894;16.714;2022-07-03T00:44:03;1.87;;;1.60;;
18174;SDS011;9212;50.894;16.714;2022-07-03T00:46:30;1.97;;;1.70;;
18174;SDS011;9212;50.894;16.714;2022-07-03T00:48:58;6.43;;;1.50;;
18174;SDS011;9212;50.894;16.714;2022-07-03T00:51:26;1.97;;;1.77;;
18174;SDS011;9212;50.894;16.714;2022-07-03T00:53:55;1.70;;;1.60;;
18174;SDS011;9212;50.894;16.714;2022-07-03T00:56:27;2.20;;;2.00;;
18174;SDS011;9212;50.894;16.714;2022-07-03T00:58:56;1.83;;;1.73;;
18174;SDS011;9212;50.894;16.714;2022-07-03T01:01:25;1.63;;;1.50;;
18174;SDS011;9212;50.894;16.714;2022-07-03T01:03:59;1.67;;;1.67;;
18174;SDS011;9212;50.894;16.714;2022-07-03T01:06:39;2.90;;;1.80;;
18174;SDS011;9212;50.894;16.714;2022-07-03T01:09:11;2.30;;;1.60;;
18174;SDS011;9212;50.894;16.714;2022-07-03T01:11:43;4.13;;;1.70;;
18174;SDS011;9212;50.894;16.714;2022-07-03T01:14:15;2.63;;;1.83;;
18174;SDS011;9212;50.894;16.714;2022-07-03T01:16:49;2.50;;;2.30;;
18174;SDS011;9212;50.894;16.714;2022-07-03T01:19:29;1.90;;;1.70;;
18174;SDS011;9212;50.894;16.714;2022-07-03T01:22:08;2.13;;;1.73;;
18174;SDS011;9212;50.894;16.714;2022-07-03T01:24:56;2.20;;;1.90;;
18174;SDS011;9212;50.894;16.714;2022-07-03T01:27:44;2.13;;;1.97;;
18174;SDS011;9212;50.894;16.714;2022-07-03T01:30:25;2.67;;;1.77;;
18174;SDS011;9212;50.894;16.714;2022-07-03T01:32:56;3.53;;;2.00;;
18174;SDS011;9212;50.894;16.714;2022-07-03T01:35:29;2.20;;;1.87;;
18174;SDS011;9212;50.894;16.714;2022-07-03T01:38:04;2.13;;;1.90;;
18174;SDS011;9212;50.894;16.714;2022-07-03T01:40:33;3.30;;;2.23;;
18174;SDS011;9212;50.894;16.714;2022-07-03T01:43:03;2.60;;;2.40;;
18174;SDS011;9212;50.894;16.714;2022-07-03T01:45:32;2.73;;;2.40;;
18174;SDS011;9212;50.894;16.714;2022-07-03T01:48:02;9.43;;;2.20;;
18174;SDS011;9212;50.894;16.714;2022-07-03T01:50:32;2.43;;;2.23;;
18174;SDS011;9212;50.894;16.714;2022-07-03T01:53:01;3.33;;;2.20;;
18174;SDS011;9212;50.894;16.714;2022-07-03T01:55:29;4.00;;;2.40;;
18174;SDS011;9212;50.894;16.714;2022-07-03T01:57:58;2.43;;;2.20;;
18174;SDS011;9212;50.894;16.714;2022-07-03T02:00:27;3.13;;;2.10;;
18174;SDS011;9212;50.894;16.714;2022-07-03T02:02:58;2.60;;;2.40;;
18174;SDS011;9212;50.894;16.714;2022-07-03T02:05:31;3.20;;;2.40;;
18174;SDS011;9212;50.894;16.714;2022-07-03T02:08:06;5.17;;;2.93;;
18174;SDS011;9212;50.894;16.714;2022-07-03T02:10:40;3.37;;;2.53;;
18174;SDS011;9212;50.894;16.714;2022-07-03T02:13:15;6.53;;;3.60;;
18174;SDS011;9212;50.894;16.714;2022-07-03T02:15:45;4.57;;;3.00;;
18174;SDS011;9212;50.894;16.714;2022-07-03T02:18:21;6.13;;;3.87;;
18174;SDS011;9212;50.894;16.714;2022-07-03T02:20:54;5.53;;;4.37;;
18174;SDS011;9212;50.894;16.714;2022-07-03T02:23:30;6.60;;;4.23;;
18174;SDS011;9212;50.894;16.714;2022-07-03T02:26:00;5.60;;;3.83;;
18174;SDS011;9212;50.894;16.714;2022-07-03T02:28:31;3.90;;;3.50;;
18174;SDS011;9212;50.894;16.714;2022-07-03T02:31:13;3.93;;;3.23;;
18174;SDS011;9212;50.894;16.714;2022-07-03T02:33:44;4.70;;;3.43;;
18174;SDS011;9212;50.894;16.714;2022-07-03T02:36:13;3.30;;;3.00;;
18174;SDS011;9212;50.894;16.714;2022-07-03T02:38:44;5.40;;;3.07;;
18174;SDS011;9212;50.894;16.714;2022-07-03T02:41:20;6.07;;;2.87;;
18174;SDS011;9212;50.894;16.714;2022-07-03T02:43:58;4.67;;;2.70;;
18174;SDS011;9212;50.894;16.714;2022-07-03T02:46:34;4.87;;;2.80;;
18174;SDS011;9212;50.894;16.714;2022-07-03T02:49:20;4.13;;;2.50;;
18174;SDS011;9212;50.894;16.714;2022-07-03T02:52:01;6.47;;;3.20;;
18174;SDS011;9212;50.894;16.714;2022-07-03T02:54:39;4.97;;;2.37;;
18174;SDS011;9212;50.894;16.714;2022-07-03T02:57:11;4.83;;;2.50;;
18174;SDS011;9212;50.894;16.714;2022-07-03T02:59:44;4.60;;;2.80;;
18174;SDS011;9212;50.894;16.714;2022-07-03T03:02:23;3.07;;;2.40;;
18174;SDS011;9212;50.894;16.714;2022-07-03T03:05:05;9.33;;;3.00;;
18174;SDS011;9212;50.894;16.714;2022-07-03T03:07:41;3.60;;;2.87;;
18174;SDS011;9212;50.894;16.714;2022-07-03T03:10:15;5.03;;;2.60;;
18174;SDS011;9212;50.894;16.714;2022-07-03T03:12:46;3.60;;;3.00;;
18174;SDS011;9212;50.894;16.714;2022-07-03T03:15:18;4.80;;;2.70;;
18174;SDS011;9212;50.894;16.714;2022-07-03T03:17:52;3.90;;;2.80;;
18174;SDS011;9212;50.894;16.714;2022-07-03T03:20:22;3.50;;;2.77;;
18174;SDS011;9212;50.894;16.714;2022-07-03T03:22:59;6.00;;;3.27;;
18174;SDS011;9212;50.894;16.714;2022-07-03T03:25:38;4.63;;;2.87;;
18174;SDS011;9212;50.894;16.714;2022-07-03T03:28:05;3.37;;;3.07;;
18174;SDS011;9212;50.894;16.714;2022-07-03T03:30:34;8.37;;;3.37;;
18174;SDS011;9212;50.894;16.714;2022-07-03T03:33:03;4.33;;;3.00;;
18174;SDS011;9212;50.894;16.714;2022-07-03T03:35:33;6.10;;;3.50;;
18174;SDS011;9212;50.894;16.714;2022-07-03T03:38:00;5.17;;;3.30;;
18174;SDS011;9212;50.894;16.714;2022-07-03T03:40:27;4.43;;;3.20;;
18174;SDS011;9212;50.894;16.714;2022-07-03T03:42:55;4.87;;;2.97;;
18174;SDS011;9212;50.894;16.714;2022-07-03T03:45:22;3.80;;;3.10;;
18174;SDS011;9212;50.894;16.714;2022-07-03T03:47:49;4.70;;;3.43;;
18174;SDS011;9212;50.894;16.714;2022-07-03T03:50:18;5.17;;;3.20;;
18174;SDS011;9212;50.894;16.714;2022-07-03T03:52:45;6.90;;;3.67;;
18174;SDS011;9212;50.894;16.714;2022-07-03T03:55:13;4.97;;;3.33;;
18174;SDS011;9212;50.894;16.714;2022-07-03T03:57:40;5.17;;;3.80;;
18174;SDS011;9212;50.894;16.714;2022-07-03T04:00:08;5.37;;;4.43;;
18174;SDS011;9212;50.894;16.714;2022-07-03T04:02:36;8.23;;;5.77;;
18174;SDS011;9212;50.894;16.714;2022-07-03T04:05:03;8.57;;;5.77;;
18174;SDS011;9212;50.894;16.714;2022-07-03T04:07:32;8.67;;;4.57;;
18174;SDS011;9212;50.894;16.714;2022-07-03T04:09:59;5.10;;;4.20;;
18174;SDS011;9212;50.894;16.714;2022-07-03T04:12:26;3.40;;;3.17;;
18174;SDS011;9212;50.894;16.714;2022-07-03T04:14:53;3.97;;;2.43;;
18174;SDS011;9212;50.894;16.714;2022-07-03T04:17:23;2.40;;;2.20;;
18174;SDS011;9212;50.894;16.714;2022-07-03T04:19:50;2.50;;;2.28;;
18174;SDS011;9212;50.894;16.714;2022-07-03T04:22:17;3.58;;;2.05;;
18174;SDS011;9212;50.894;16.714;2022-07-03T04:24:46;2.33;;;2.00;;
18174;SDS011;9212;50.894;16.714;2022-07-03T04:27:13;2.13;;;2.03;;
18174;SDS011;9212;50.894;16.714;2022-07-03T04:29:40;5.30;;;2.10;;
18174;SDS011;9212;50.894;16.714;2022-07-03T04:32:07;3.45;;;2.67;;
18174;SDS011;9212;50.894;16.714;2022-07-03T04:34:35;3.33;;;2.45;;
18174;SDS011;9212;50.894;16.714;2022-07-03T04:37:03;6.20;;;2.40;;
18174;SDS011;9212;50.894;16.714;2022-07-03T04:39:31;2.78;;;2.47;;
18174;SDS011;9212;50.894;16.714;2022-07-03T04:41:59;3.88;;;2.72;;
18174;SDS011;9212;50.894;16.714;2022-07-03T04:44:26;4.45;;;2.90;;
18174;SDS011;9212;50.894;16.714;2022-07-03T04:46:53;6.05;;;3.00;;
18174;SDS011;9212;50.894;16.714;2022-07-03T04:49:21;5.90;;;3.20;;
18174;SDS011;9212;50.894;16.714;2022-07-03T04:51:48;3.55;;;3.25;;
18174;SDS011;9212;50.894;16.714;2022-07-03T04:54:17;3.63;;;3.33;;
18174;SDS011;9212;50.894;16.714;2022-07-03T04:56:44;4.38;;;3.50;;
18174;SDS011;9212;50.894;16.714;2022-07-03T04:59:13;5.25;;;2.80;;
18174;SDS011;9212;50.894;16.714;2022-07-03T05:01:40;3.28;;;2.97;;
18174;SDS011;9212;50.894;16.714;2022-07-03T05:04:07;3.00;;;2.70;;
18174;SDS011;9212;50.894;16.714;2022-07-03T05:06:35;3.70;;;3.08;;
18174;SDS011;9212;50.894;16.714;2022-07-03T05:09:02;4.63;;;3.72;;
18174;SDS011;9212;50.894;16.714;2022-07-03T05:11:29;4.00;;;2.95;;
18174;SDS011;9212;50.894;16.714;2022-07-03T05:13:56;6.10;;;2.92;;
18174;SDS011;9212;50.894;16.714;2022-07-03T05:16:25;3.30;;;3.00;;
18174;SDS011;9212;50.894;16.714;2022-07-03T05:18:52;6.05;;;3.10;;
18174;SDS011;9212;50.894;16.714;2022-07-03T05:21:19;3.72;;;3.42;;
18174;SDS011;9212;50.894;16.714;2022-07-03T05:23:47;6.28;;;3.40;;
18174;SDS011;9212;50.894;16.714;2022-07-03T05:26:14;6.65;;;3.70;;
18174;SDS011;9212;50.894;16.714;2022-07-03T05:28:41;6.00;;;3.38;;
18174;SDS011;9212;50.894;16.714;2022-07-03T05:31:09;4.18;;;2.97;;
18174;SDS011;9212;50.894;16.714;2022-07-03T05:33:37;6.25;;;3.20;;
18174;SDS011;9212;50.894;16.714;2022-07-03T05:36:05;5.45;;;3.03;;
18174;SDS011;9212;50.894;16.714;2022-07-03T05:38:32;4.25;;;2.80;;
18174;SDS011;9212;50.894;16.714;2022-07-03T05:41:14;3.95;;;3.10;;
18174;SDS011;9212;50.894;16.714;2022-07-03T05:43:41;4.55;;;2.67;;
18174;SDS011;9212;50.894;16.714;2022-07-03T05:46:08;2.60;;;2.42;;
18174;SDS011;9212;50.894;16.714;2022-07-03T05:48:35;4.45;;;2.45;;
18174;SDS011;9212;50.894;16.714;2022-07-03T05:51:04;2.70;;;2.50;;
18174;SDS011;9212;50.894;16.714;2022-07-03T05:53:31;3.80;;;2.15;;
18174;SDS011;9212;50.894;16.714;2022-07-03T05:55:59;2.40;;;2.15;;
18174;SDS011;9212;50.894;16.714;2022-07-03T05:58:26;3.05;;;2.47;;
18174;SDS011;9212;50.894;16.714;2022-07-03T06:00:53;5.13;;;2.53;;
18174;SDS011;9212;50.894;16.714;2022-07-03T06:03:20;4.45;;;3.13;;
18174;SDS011;9212;50.894;16.714;2022-07-03T06:05:48;3.17;;;2.53;;
18174;SDS011;9212;50.894;16.714;2022-07-03T06:08:16;2.97;;;2.20;;
18174;SDS011;9212;50.894;16.714;2022-07-03T06:10:43;3.00;;;2.72;;
18174;SDS011;9212;50.894;16.714;2022-07-03T06:13:11;3.72;;;2.60;;
18174;SDS011;9212;50.894;16.714;2022-07-03T06:15:38;4.63;;;2.90;;
18174;SDS011;9212;50.894;16.714;2022-07-03T06:18:05;4.55;;;2.90;;
18174;SDS011;9212;50.894;16.714;2022-07-03T06:20:32;3.13;;;2.85;;
18174;SDS011;9212;50.894;16.714;2022-07-03T06:23:00;3.20;;;2.90;;
18174;SDS011;9212;50.894;16.714;2022-07-03T06:25:29;7.22;;;2.92;;
18174;SDS011;9212;50.894;16.714;2022-07-03T06:27:56;5.63;;;3.22;;
18174;SDS011;9212;50.894;16.714;2022-07-03T06:30:23;3.38;;;2.97;;
18174;SDS011;9212;50.894;16.714;2022-07-03T06:32:51;3.55;;;2.85;;
18174;SDS011;9212;50.894;16.714;2022-07-03T06:35:18;3.65;;;2.95;;
18174;SDS011;9212;50.894;16.714;2022-07-03T06:37:45;3.60;;;3.20;;
18174;SDS011;9212;50.894;16.714;2022-07-03T06:40:12;3.28;;;3.00;;
18174;SDS011;9212;50.894;16.714;2022-07-03T06:42:41;2.70;;;2.50;;
18174;SDS011;9212;50.894;16.714;2022-07-03T06:45:09;6.70;;;3.08;;
18174;SDS011;9212;50.894;16.714;2022-07-03T06:47:36;6.75;;;3.08;;
18174;SDS011;9212;50.894;16.714;2022-07-03T06:50:04;5.28;;;2.75;;
18174;SDS011;9212;50.894;16.714;2022-07-03T06:52:32;3.35;;;3.08;;
18174;SDS011;9212;50.894;16.714;2022-07-03T06:54:59;4.28;;;3.08;;
18174;SDS011;9212;50.894;16.714;2022-07-03T06:57:26;3.28;;;3.00;;
18174;SDS011;9212;50.894;16.714;2022-07-03T06:59:55;3.25;;;3.05;;
18174;SDS011;9212;50.894;16.714;2022-07-03T07:02:22;5.22;;;3.08;;
18174;SDS011;9212;50.894;16.714;2022-07-03T07:04:50;4.43;;;2.78;;
18174;SDS011;9212;50.894;16.714;2022-07-03T07:07:17;2.60;;;2.40;;
18174;SDS011;9212;50.894;16.714;2022-07-03T07:09:45;3.45;;;2.45;;
18174;SDS011;9212;50.894;16.714;2022-07-03T07:12:12;3.63;;;2.90;;
18174;SDS011;9212;50.894;16.714;2022-07-03T07:14:39;3.10;;;2.80;;
18174;SDS011;9212;50.894;16.714;2022-07-03T07:17:08;6.40;;;3.08;;
18174;SDS011;9212;50.894;16.714;2022-07-03T07:19:35;2.75;;;2.50;;
18174;SDS011;9212;50.894;16.714;2022-07-03T07:22:03;4.43;;;3.33;;
18174;SDS011;9212;50.894;16.714;2022-07-03T07:24:30;4.28;;;3.50;;
18174;SDS011;9212;50.894;16.714;2022-07-03T07:26:57;5.10;;;3.67;;
18174;SDS011;9212;50.894;16.714;2022-07-03T07:29:24;4.40;;;3.13;;
18174;SDS011;9212;50.894;16.714;2022-07-03T07:31:52;3.92;;;3.53;;
18174;SDS011;9212;50.894;16.714;2022-07-03T07:34:20;3.95;;;3.45;;
18174;SDS011;9212;50.894;16.714;2022-07-03T07:36:48;4.88;;;3.33;;
18174;SDS011;9212;50.894;16.714;2022-07-03T07:39:15;3.92;;;3.30;;
18174;SDS011;9212;50.894;16.714;2022-07-03T07:41:42;4.95;;;3.20;;
18174;SDS011;9212;50.894;16.714;2022-07-03T07:44:10;5.55;;;3.53;;
18174;SDS011;9212;50.894;16.714;2022-07-03T07:46:37;3.45;;;3.15;;
18174;SDS011;9212;50.894;16.714;2022-07-03T07:49:04;4.10;;;3.55;;
18174;SDS011;9212;50.894;16.714;2022-07-03T07:51:33;4.22;;;3.53;;
18174;SDS011;9212;50.894;16.714;2022-07-03T07:54:00;5.50;;;3.72;;
18174;SDS011;9212;50.894;16.714;2022-07-03T07:56:27;6.13;;;4.15;;
18174;SDS011;9212;50.894;16.714;2022-07-03T07:58:55;5.90;;;3.97;;
18174;SDS011;9212;50.894;16.714;2022-07-03T08:01:22;3.80;;;3.45;;
18174;SDS011;9212;50.894;16.714;2022-07-03T08:04:15;4.50;;;2.90;;
18174;SDS011;9212;50.894;16.714;2022-07-03T08:07:01;4.55;;;3.22;;
18174;SDS011;9212;50.894;16.714;2022-07-03T08:09:28;5.03;;;3.25;;
18174;SDS011;9212;50.894;16.714;2022-07-03T08:11:56;5.32;;;3.22;;
18174;SDS011;9212;50.894;16.714;2022-07-03T08:14:23;4.93;;;3.40;;
18174;SDS011;9212;50.894;16.714;2022-07-03T08:16:50;4.50;;;3.30;;
18174;SDS011;9212;50.894;16.714;2022-07-03T08:19:17;6.03;;;3.58;;
18174;SDS011;9212;50.894;16.714;2022-07-03T08:21:44;3.53;;;3.03;;
18174;SDS011;9212;50.894;16.714;2022-07-03T08:24:13;3.25;;;3.05;;
18174;SDS011;9212;50.894;16.714;2022-07-03T08:26:41;5.95;;;3.63;;
18174;SDS011;9212;50.894;16.714;2022-07-03T08:29:08;5.40;;;3.42;;
18174;SDS011;9212;50.894;16.714;2022-07-03T08:31:36;3.58;;;3.17;;
18174;SDS011;9212;50.894;16.714;2022-07-03T08:34:03;3.33;;;3.03;;
18174;SDS011;9212;50.894;16.714;2022-07-03T08:36:30;3.58;;;3.03;;
18174;SDS011;9212;50.894;16.714;2022-07-03T08:38:57;3.92;;;3.40;;
18174;SDS011;9212;50.894;16.714;2022-07-03T08:41:26;5.90;;;3.50;;
18174;SDS011;9212;50.894;16.714;2022-07-03T08:43:53;5.95;;;3.70;;
18174;SDS011;9212;50.894;16.714;2022-07-03T08:46:21;3.80;;;3.50;;
18174;SDS011;9212;50.894;16.714;2022-07-03T08:48:48;4.13;;;3.53;;
18174;SDS011;9212;50.894;16.714;2022-07-03T08:51:18;4.65;;;3.50;;
18174;SDS011;9212;50.894;16.714;2022-07-03T08:53:46;3.90;;;3.30;;
18174;SDS011;9212;50.894;16.714;2022-07-03T08:56:14;3.67;;;3.08;;
18174;SDS011;9212;50.894;16.714;2022-07-03T08:58:42;3.85;;;3.13;;
18174;SDS011;9212;50.894;16.714;2022-07-03T09:01:10;6.07;;;3.38;;
18174;SDS011;9212;50.894;16.714;2022-07-03T09:03:41;4.30;;;3.33;;
18174;SDS011;9212;50.894;16.714;2022-07-03T09:06:09;4.03;;;3.20;;
18174;SDS011;9212;50.894;16.714;2022-07-03T09:08:36;4.07;;;3.67;;
18174;SDS011;9212;50.894;16.714;2022-07-03T09:11:04;3.08;;;2.42;;
18174;SDS011;9212;50.894;16.714;2022-07-03T09:13:31;4.35;;;3.33;;
18174;SDS011;9212;50.894;16.714;2022-07-03T09:16:00;3.65;;;2.90;;
18174;SDS011;9212;50.894;16.714;2022-07-03T09:18:37;3.63;;;3.33;;
18174;SDS011;9212;50.894;16.714;2022-07-03T09:21:05;4.50;;;3.50;;
18174;SDS011;9212;50.894;16.714;2022-07-03T09:23:37;4.03;;;3.10;;
18174;SDS011;9212;50.894;16.714;2022-07-03T09:26:05;3.38;;;2.88;;
18174;SDS011;9212;50.894;16.714;2022-07-03T09:28:41;3.33;;;3.03;;
18174;SDS011;9212;50.894;16.714;2022-07-03T09:31:11;3.97;;;3.20;;
18174;SDS011;9212;50.894;16.714;2022-07-03T09:33:56;4.97;;;3.20;;
18174;SDS011;9212;50.894;16.714;2022-07-03T09:36:37;4.28;;;3.03;;
18174;SDS011;9212;50.894;16.714;2022-07-03T09:39:22;5.13;;;3.22;;
18174;SDS011;9212;50.894;16.714;2022-07-03T09:41:54;4.68;;;2.95;;
18174;SDS011;9212;50.894;16.714;2022-07-03T09:44:30;3.83;;;3.47;;
18174;SDS011;9212;50.894;16.714;2022-07-03T09:47:08;3.30;;;3.08;;
18174;SDS011;9212;50.894;16.714;2022-07-03T09:49:47;3.50;;;3.20;;
18174;SDS011;9212;50.894;16.714;2022-07-03T09:52:26;4.95;;;3.30;;
18174;SDS011;9212;50.894;16.714;2022-07-03T09:54:54;4.13;;;3.00;;
18174;SDS011;9212;50.894;16.714;2022-07-03T09:57:21;4.22;;;3.00;;
18174;SDS011;9212;50.894;16.714;2022-07-03T09:59:49;6.07;;;3.20;;
18174;SDS011;9212;50.894;16.714;2022-07-03T10:02:17;3.58;;;3.28;;
18174;SDS011;9212;50.894;16.714;2022-07-03T10:04:45;4.28;;;3.25;;
18174;SDS011;9212;50.894;16.714;2022-07-03T10:07:12;3.95;;;3.30;;
18174;SDS011;9212;50.894;16.714;2022-07-03T10:09:39;3.15;;;2.95;;
18174;SDS011;9212;50.894;16.714;2022-07-03T10:12:07;4.38;;;3.30;;
18174;SDS011;9212;50.894;16.714;2022-07-03T10:14:34;3.50;;;3.15;;
18174;SDS011;9212;50.894;16.714;2022-07-03T10:17:01;3.38;;;3.08;;
18174;SDS011;9212;50.894;16.714;2022-07-03T10:19:31;3.05;;;2.78;;
18174;SDS011;9212;50.894;16.714;2022-07-03T10:22:06;3.40;;;3.10;;
18174;SDS011;9212;50.894;16.714;2022-07-03T10:24:36;3.85;;;3.00;;
18174;SDS011;9212;50.894;16.714;2022-07-03T10:27:03;3.38;;;2.97;;
18174;SDS011;9212;50.894;16.714;2022-07-03T10:29:31;3.03;;;2.72;;
18174;SDS011;9212;50.894;16.714;2022-07-03T10:31:58;3.30;;;3.00;;
18174;SDS011;9212;50.894;16.714;2022-07-03T10:34:26;2.97;;;2.78;;
18174;SDS011;9212;50.894;16.714;2022-07-03T10:36:56;3.75;;;3.10;;
18174;SDS011;9212;50.894;16.714;2022-07-03T10:39:31;5.80;;;3.30;;
18174;SDS011;9212;50.894;16.714;2022-07-03T10:42:03;3.60;;;2.95;;
18174;SDS011;9212;50.894;16.714;2022-07-03T10:44:49;3.28;;;2.95;;
18174;SDS011;9212;50.894;16.714;2022-07-03T10:47:37;2.60;;;2.40;;
18174;SDS011;9212;50.894;16.714;2022-07-03T10:50:13;4.00;;;3.10;;
18174;SDS011;9212;50.894;16.714;2022-07-03T10:52:43;4.15;;;3.22;;
18174;SDS011;9212;50.894;16.714;2022-07-03T10:55:11;3.10;;;2.90;;
18174;SDS011;9212;50.894;16.714;2022-07-03T10:57:39;4.20;;;3.30;;
18174;SDS011;9212;50.894;16.714;2022-07-03T11:00:16;8.63;;;3.15;;
18174;SDS011;9212;50.894;16.714;2022-07-03T11:02:46;3.33;;;3.05;;
18174;SDS011;9212;50.894;16.714;2022-07-03T11:05:18;4.43;;;2.92;;
18174;SDS011;9212;50.894;16.714;2022-07-03T11:08:03;3.67;;;3.10;;
18174;SDS011;9212;50.894;16.714;2022-07-03T11:10:48;3.60;;;3.30;;
18174;SDS011;9212;50.894;16.714;2022-07-03T11:13:36;3.53;;;3.17;;
18174;SDS011;9212;50.894;16.714;2022-07-03T11:16:03;3.63;;;2.90;;
18174;SDS011;9212;50.894;16.714;2022-07-03T11:18:31;2.90;;;2.70;;
18174;SDS011;9212;50.894;16.714;2022-07-03T11:24:19;3.50;;;3.20;;
18174;SDS011;9212;50.894;16.714;2022-07-03T11:29:49;3.95;;;3.25;;
18174;SDS011;9212;50.894;16.714;2022-07-03T11:38:29;3.10;;;2.80;;
18174;SDS011;9212;50.894;16.714;2022-07-03T11:40:58;2.92;;;2.72;;
18174;SDS011;9212;50.894;16.714;2022-07-03T11:43:26;5.97;;;2.90;;
18174;SDS011;9212;50.894;16.714;2022-07-03T11:45:53;2.80;;;2.60;;
18174;SDS011;9212;50.894;16.714;2022-07-03T11:48:23;3.05;;;2.75;;
18174;SDS011;9212;50.894;16.714;2022-07-03T11:50:52;4.38;;;2.95;;
18174;SDS011;9212;50.894;16.714;2022-07-03T11:53:25;4.28;;;2.70;;
18174;SDS011;9212;50.894;16.714;2022-07-03T11:55:54;3.22;;;2.88;;
18174;SDS011;9212;50.894;16.714;2022-07-03T11:58:23;4.68;;;2.72;;
18174;SDS011;9212;50.894;16.714;2022-07-03T12:00:51;3.30;;;2.70;;
18174;SDS011;9212;50.894;16.714;2022-07-03T12:03:22;3.15;;;2.88;;
18174;SDS011;9212;50.894;16.714;2022-07-03T12:05:54;3.20;;;2.85;;
18174;SDS011;9212;50.894;16.714;2022-07-03T12:08:26;3.15;;;2.85;;
18174;SDS011;9212;50.894;16.714;2022-07-03T12:10:58;3.15;;;2.95;;
18174;SDS011;9212;50.894;16.714;2022-07-03T12:13:28;3.15;;;2.95;;
18174;SDS011;9212;50.894;16.714;2022-07-03T12:16:07;3.47;;;2.90;;
18174;SDS011;9212;50.894;16.714;2022-07-03T12:21:21;2.83;;;2.63;;
18174;SDS011;9212;50.894;16.714;2022-07-03T12:23:49;2.85;;;2.65;;
18174;SDS011;9212;50.894;16.714;2022-07-03T12:26:27;3.08;;;2.78;;
18174;SDS011;9212;50.894;16.714;2022-07-03T12:28:57;3.13;;;2.80;;
18174;SDS011;9212;50.894;16.714;2022-07-03T12:31:26;3.33;;;3.00;;
18174;SDS011;9212;50.894;16.714;2022-07-03T12:33:56;3.08;;;2.78;;
18174;SDS011;9212;50.894;16.714;2022-07-03T12:36:25;3.15;;;2.90;;
18174;SDS011;9212;50.894;16.714;2022-07-03T12:38:54;3.17;;;2.95;;
18174;SDS011;9212;50.894;16.714;2022-07-03T12:41:25;2.90;;;2.67;;
18174;SDS011;9212;50.894;16.714;2022-07-03T12:43:53;3.00;;;2.80;;
18174;SDS011;9212;50.894;16.714;2022-07-03T12:46:23;3.15;;;2.85;;
18174;SDS011;9212;50.894;16.714;2022-07-03T12:48:53;3.35;;;3.05;;
18174;SDS011;9212;50.894;16.714;2022-07-03T12:51:37;3.20;;;3.00;;
18174;SDS011;9212;50.894;16.714;2022-07-03T12:54:05;3.35;;;3.05;;
18174;SDS011;9212;50.894;16.714;2022-07-03T12:56:33;3.10;;;2.80;;
18174;SDS011;9212;50.894;16.714;2022-07-03T12:59:00;3.65;;;3.35;;
18174;SDS011;9212;50.894;16.714;2022-07-03T13:01:43;3.60;;;3.30;;
18174;SDS011;9212;50.894;16.714;2022-07-03T13:04:11;4.05;;;3.10;;
18174;SDS011;9212;50.894;16.714;2022-07-03T13:06:43;4.20;;;3.13;;
18174;SDS011;9212;50.894;16.714;2022-07-03T13:09:11;3.42;;;3.13;;
18174;SDS011;9212;50.894;16.714;2022-07-03T13:11:39;4.05;;;3.05;;
18174;SDS011;9212;50.894;16.714;2022-07-03T13:14:08;3.58;;;2.95;;
18174;SDS011;9212;50.894;16.714;2022-07-03T13:16:38;3.88;;;3.22;;
18174;SDS011;9212;50.894;16.714;2022-07-03T13:19:11;3.67;;;3.20;;
18174;SDS011;9212;50.894;16.714;2022-07-03T13:21:41;5.35;;;3.13;;
18174;SDS011;9212;50.894;16.714;2022-07-03T13:24:12;4.55;;;3.40;;
18174;SDS011;9212;50.894;16.714;2022-07-03T13:26:44;3.40;;;3.10;;
18174;SDS011;9212;50.894;16.714;2022-07-03T13:29:12;3.40;;;3.10;;
18174;SDS011;9212;50.894;16.714;2022-07-03T13:31:39;3.38;;;3.17;;
18174;SDS011;9212;50.894;16.714;2022-07-03T13:34:06;3.40;;;3.10;;
18174;SDS011;9212;50.894;16.714;2022-07-03T13:36:35;3.45;;;3.20;;
18174;SDS011;9212;50.894;16.714;2022-07-03T13:39:02;2.97;;;2.78;;
18174;SDS011;9212;50.894;16.714;2022-07-03T13:41:30;5.03;;;3.30;;
18174;SDS011;9212;50.894;16.714;2022-07-03T13:43:57;3.42;;;3.22;;
18174;SDS011;9212;50.894;16.714;2022-07-03T13:46:24;3.45;;;3.10;;
18174;SDS011;9212;50.894;16.714;2022-07-03T13:48:52;5.50;;;2.95;;
18174;SDS011;9212;50.894;16.714;2022-07-03T13:51:24;3.42;;;3.17;;
18174;SDS011;9212;50.894;16.714;2022-07-03T13:53:53;3.75;;;3.28;;
18174;SDS011;9212;50.894;16.714;2022-07-03T13:56:20;3.67;;;3.38;;
18174;SDS011;9212;50.894;16.714;2022-07-03T13:58:47;3.38;;;3.08;;
18174;SDS011;9212;50.894;16.714;2022-07-03T14:01:14;3.17;;;2.88;;
18174;SDS011;9212;50.894;16.714;2022-07-03T14:03:42;4.93;;;3.42;;
18174;SDS011;9212;50.894;16.714;2022-07-03T14:06:09;3.60;;;3.30;;
18174;SDS011;9212;50.894;16.714;2022-07-03T14:08:36;3.70;;;3.40;;
18174;SDS011;9212;50.894;16.714;2022-07-03T14:11:05;4.00;;;3.30;;
18174;SDS011;9212;50.894;16.714;2022-07-03T14:13:32;3.58;;;3.28;;
18174;SDS011;9212;50.894;16.714;2022-07-03T14:15:59;2.95;;;2.75;;
18174;SDS011;9212;50.894;16.714;2022-07-03T14:18:27;3.53;;;3.22;;
18174;SDS011;9212;50.894;16.714;2022-07-03T14:20:54;3.28;;;3.03;;
18174;SDS011;9212;50.894;16.714;2022-07-03T14:23:21;3.70;;;3.20;;
18174;SDS011;9212;50.894;16.714;2022-07-03T14:25:48;3.83;;;3.50;;
18174;SDS011;9212;50.894;16.714;2022-07-03T14:28:17;3.88;;;3.45;;
18174;SDS011;9212;50.894;16.714;2022-07-03T14:31:02;3.55;;;3.25;;
18174;SDS011;9212;50.894;16.714;2022-07-03T14:33:58;3.60;;;3.30;;
18174;SDS011;9212;50.894;16.714;2022-07-03T14:36:25;3.67;;;3.33;;
18174;SDS011;9212;50.894;16.714;2022-07-03T14:38:52;3.50;;;3.30;;
18174;SDS011;9212;50.894;16.714;2022-07-03T14:41:20;4.10;;;3.33;;
18174;SDS011;9212;50.894;16.714;2022-07-03T14:43:48;3.03;;;2.83;;
18174;SDS011;9212;50.894;16.714;2022-07-03T14:46:15;3.92;;;3.60;;
18174;SDS011;9212;50.894;16.714;2022-07-03T14:48:43;4.68;;;3.55;;
18174;SDS011;9212;50.894;16.714;2022-07-03T14:51:10;3.55;;;3.25;;
18174;SDS011;9212;50.894;16.714;2022-07-03T14:53:37;3.53;;;3.17;;
18174;SDS011;9212;50.894;16.714;2022-07-03T14:56:05;3.60;;;3.28;;
18174;SDS011;9212;50.894;16.714;2022-07-03T14:58:33;3.72;;;3.40;;
18174;SDS011;9212;50.894;16.714;2022-07-03T15:01:02;3.35;;;3.10;;
18174;SDS011;9212;50.894;16.714;2022-07-03T15:03:35;3.35;;;3.05;;
18174;SDS011;9212;50.894;16.714;2022-07-03T15:06:09;3.28;;;3.08;;
18174;SDS011;9212;50.894;16.714;2022-07-03T15:08:42;5.55;;;5.03;;
18174;SDS011;9212;50.894;16.714;2022-07-03T15:11:15;3.75;;;3.40;;
18174;SDS011;9212;50.894;16.714;2022-07-03T15:14:04;13.77;;;7.63;;
18174;SDS011;9212;50.894;16.714;2022-07-03T15:16:35;3.42;;;3.13;;
18174;SDS011;9212;50.894;16.714;2022-07-03T15:19:03;4.25;;;3.20;;
18174;SDS011;9212;50.894;16.714;2022-07-03T15:21:31;3.20;;;3.00;;